Time,TemperatureF,DewpointF,PressureIn,WindDirection,WindDirectionDegrees,WindSpeedMPH,WindSpeedGustMPH,Humidity,HourlyPrecipIn,Conditions,Clouds,dailyrainin,SoftwareType,DateUTC
2013-05-30 00:00:00,75.1,65.5,29.84,South,175,7.0,7.0,72,0.00,,,0.00,Wunderground v.1.15,2013-05-30 05:00:00,
2013-05-30 00:05:00,75.2,65.6,29.84,South,180,6.0,14.0,72,0.00,,,-99.99,WeatherLink 6.0.3,2013-05-30 05:05:00,
2013-05-30 00:09:00,75.1,65.5,29.84,SSW,192,6.0,7.0,72,0.00,,,0.00,Wunderground v.1.15,2013-05-30 05:09:00,
2013-05-30 00:15:00,75.1,65.5,29.84,South,172,6.0,7.0,72,0.00,,,0.00,Wunderground v.1.15,2013-05-30 05:15:00,
2013-05-30 00:20:00,75.0,65.4,29.83,South,180,6.0,10.0,72,0.00,,,-99.99,WeatherLink 6.0.3,2013-05-30 05:20:00,
2013-05-30 00:24:00,75.0,65.4,29.83,South,176,6.0,6.0,72,0.00,,,0.00,Wunderground v.1.15,2013-05-30 05:24:00,
2013-05-30 00:29:00,75.1,65.5,29.84,SSE,165,6.0,9.0,72,0.00,,,0.00,Wunderground v.1.15,2013-05-30 05:29:00,
2013-05-30 00:34:00,74.9,65.3,29.83,SSE,167,6.0,9.0,72,0.00,,,0.00,Wunderground v.1.15,2013-05-30 05:34:00,
2013-05-30 00:35:00,75.0,65.4,29.84,South,180,6.0,12.0,72,0.00,,,-99.99,WeatherLink 6.0.3,2013-05-30 05:35:00,
2013-05-30 00:40:00,74.9,65.3,29.84,South,175,6.0,6.0,72,0.00,,,0.00,Wunderground v.1.15,2013-05-30 05:40:00,
2013-05-30 00:45:00,74.7,65.1,29.85,SSW,192,6.0,6.0,72,0.00,,,0.00,Wunderground v.1.15,2013-05-30 05:45:00,
2013-05-30 00:50:00,74.7,65.1,29.84,South,180,5.0,5.0,72,0.00,,,0.00,Wunderground v.1.15,2013-05-30 05:50:00,
2013-05-30 00:55:00,74.7,65.1,29.83,South,169,5.0,5.0,72,0.00,,,0.00,Wunderground v.1.15,2013-05-30 05:55:00,
2013-05-30 01:00:00,74.7,65.1,29.84,South,175,5.0,7.0,72,0.00,,,0.00,Wunderground v.1.15,2013-05-30 06:00:00,
2013-05-30 01:05:00,74.0,64.4,29.86,SSW,207,4.0,7.0,72,0.00,,,0.00,Wunderground v.1.15,2013-05-30 06:05:00,
2013-05-30 01:10:00,69.4,60.0,29.86,SW,219,6.0,6.0,72,1.01,,,0.08,Wunderground v.1.15,2013-05-30 06:10:00,
2013-05-30 01:15:00,66.7,55.4,29.85,SW,215,7.0,7.0,67,3.84,,,0.22,Wunderground v.1.15,2013-05-30 06:15:00,
2013-05-30 01:20:00,66.5,53.5,29.85,SW,227,5.0,5.0,63,0.25,,,0.25,Wunderground v.1.15,2013-05-30 06:20:00,
2013-05-30 01:25:00,66.6,52.7,29.85,SW,232,4.0,5.0,61,0.08,,,0.25,Wunderground v.1.15,2013-05-30 06:25:00,
2013-05-30 01:30:00,66.8,52.5,29.85,SSW,211,3.0,3.0,60,0.05,,,0.25,Wunderground v.1.15,2013-05-30 06:30:00,
2013-05-30 01:35:00,67.1,52.3,29.84,SSW,210,1.0,3.0,59,0.00,,,0.25,Wunderground v.1.15,2013-05-30 06:35:00,
2013-05-30 01:40:00,67.3,52.0,29.87,SSW,192,1.0,10.0,58,1.95,,,0.31,Wunderground v.1.15,2013-05-30 06:40:00,
2013-05-30 01:45:00,65.8,52.0,29.86,SSW,204,6.0,10.0,61,0.35,,,0.38,Wunderground v.1.15,2013-05-30 06:45:00,
2013-05-30 01:50:00,65.6,52.2,29.85,SW,218,6.0,6.0,62,0.09,,,0.38,Wunderground v.1.15,2013-05-30 06:50:00,
2013-05-30 01:55:00,65.7,54.0,29.86,SSW,207,6.0,6.0,66,0.07,,,0.39,Wunderground v.1.15,2013-05-30 06:55:00,
2013-05-30 02:00:00,65.0,52.5,29.86,SSW,210,7.0,7.0,64,0.75,,,0.45,Wunderground v.1.15,2013-05-30 07:00:00,
2013-05-30 02:05:00,64.4,51.5,29.88,SW,225,3.0,8.0,63,0.53,,,-99.99,WeatherLink 6.0.3,2013-05-30 07:05:00,
2013-05-30 02:09:00,64.1,50.8,29.87,WNW,290,3.0,8.0,62,1.48,,,0.67,Wunderground v.1.15,2013-05-30 07:09:00,
2013-05-30 02:14:00,63.9,50.2,29.89,SSW,211,4.0,8.0,61,1.78,,,0.79,Wunderground v.1.15,2013-05-30 07:14:00,
2013-05-30 02:19:00,63.6,49.5,29.89,SW,217,4.0,4.0,60,1.27,,,0.91,Wunderground v.1.15,2013-05-30 07:19:00,
2013-05-30 02:20:00,63.6,49.5,29.89,SW,225,1.0,7.0,60,0.68,,,-99.99,WeatherLink 6.0.3,2013-05-30 07:20:00,
2013-05-30 02:25:00,63.4,48.8,29.89,SSW,211,2.0,4.0,59,0.23,,,0.97,Wunderground v.1.15,2013-05-30 07:25:00,
2013-05-30 02:30:00,63.4,48.8,29.88,SSW,205,3.0,3.0,59,0.13,,,0.98,Wunderground v.1.15,2013-05-30 07:30:00,
2013-05-30 02:35:00,63.4,48.4,29.87,South,173,1.0,3.0,58,0.19,,,1.00,Wunderground v.1.15,2013-05-30 07:35:00,
2013-05-30 02:40:00,63.4,48.4,29.87,South,173,0.0,0.0,58,0.16,,,1.01,Wunderground v.1.15,2013-05-30 07:40:00,
2013-05-30 02:45:00,63.4,48.4,29.88,South,173,0.0,0.0,58,0.16,,,1.02,Wunderground v.1.15,2013-05-30 07:45:00,
2013-05-30 02:50:00,63.5,48.0,29.88,South,171,0.0,2.0,57,0.07,,,1.02,Wunderground v.1.15,2013-05-30 07:50:00,
2013-05-30 03:00:00,63.6,48.1,29.86,South,178,1.0,1.0,57,0.22,,,1.06,Wunderground v.1.15,2013-05-30 08:00:00,
2013-05-30 03:05:00,63.6,48.1,29.85,South,178,0.0,1.0,57,0.10,,,1.06,Wunderground v.1.15,2013-05-30 08:05:00,
2013-05-30 03:10:00,63.7,48.2,29.83,South,178,0.0,0.0,57,0.10,,,1.07,Wunderground v.1.15,2013-05-30 08:10:00,
2013-05-30 03:15:00,63.8,48.3,29.86,South,178,0.0,0.0,57,0.06,,,1.07,Wunderground v.1.15,2013-05-30 08:15:00,
2013-05-30 03:20:00,63.8,48.3,29.88,South,179,0.0,0.0,57,0.04,,,1.07,Wunderground v.1.15,2013-05-30 08:20:00,
2013-05-30 03:25:00,63.8,48.3,29.87,South,180,0.0,0.0,57,0.00,,,1.07,Wunderground v.1.15,2013-05-30 08:25:00,
2013-05-30 03:33:00,63.8,48.3,29.87,South,180,0.0,3.0,57,0.09,,,-99.99,WeatherLink 6.0.3,2013-05-30 08:33:00,
2013-05-30 03:35:00,63.8,48.3,29.88,South,180,2.0,7.0,57,0.07,,,-99.99,WeatherLink 6.0.3,2013-05-30 08:35:00,
2013-05-30 03:40:00,63.9,48.4,29.87,South,171,2.0,4.0,57,0.00,,,1.08,Wunderground v.1.15,2013-05-30 08:40:00,
2013-05-30 03:45:00,63.9,48.4,29.88,South,171,3.0,4.0,57,0.00,,,1.08,Wunderground v.1.15,2013-05-30 08:45:00,
2013-05-30 03:50:00,63.9,48.4,29.87,South,180,3.0,7.0,57,0.06,,,-99.99,WeatherLink 6.0.3,2013-05-30 08:50:00,
2013-05-30 03:55:00,63.9,48.4,29.87,South,173,4.0,4.0,57,0.00,,,1.09,Wunderground v.1.15,2013-05-30 08:55:00,
2013-05-30 04:00:00,63.9,48.4,29.87,South,182,4.0,4.0,57,0.00,,,1.09,Wunderground v.1.15,2013-05-30 09:00:00,
2013-05-30 04:05:00,63.9,48.4,29.87,South,178,4.0,4.0,57,0.00,,,1.09,Wunderground v.1.15,2013-05-30 09:05:00,
2013-05-30 04:10:00,63.9,48.4,29.86,South,169,3.0,5.0,57,0.00,,,1.09,Wunderground v.1.15,2013-05-30 09:10:00,
2013-05-30 04:15:00,63.9,48.4,29.86,SSE,165,3.0,5.0,57,0.04,,,1.10,Wunderground v.1.15,2013-05-30 09:15:00,
2013-05-30 04:20:00,63.9,48.4,29.86,SSE,155,3.0,3.0,57,0.04,,,1.10,Wunderground v.1.15,2013-05-30 09:20:00,
2013-05-30 04:25:00,63.9,48.4,29.84,SE,145,3.0,3.0,57,0.04,,,1.10,Wunderground v.1.15,2013-05-30 09:25:00,
2013-05-30 04:30:00,63.9,48.4,29.85,SSE,165,2.0,2.0,57,0.00,,,1.10,Wunderground v.1.15,2013-05-30 09:30:00,
2013-05-30 04:35:00,63.9,47.9,29.86,SSE,163,1.0,3.0,56,0.28,,,1.12,Wunderground v.1.15,2013-05-30 09:35:00,
2013-05-30 04:40:00,63.9,47.9,29.86,SSE,165,0.0,0.0,56,0.10,,,1.12,Wunderground v.1.15,2013-05-30 09:40:00,
2013-05-30 04:45:00,63.8,47.8,29.86,SSE,159,0.0,1.0,56,0.06,,,1.12,Wunderground v.1.15,2013-05-30 09:45:00,
2013-05-30 04:50:00,63.8,47.8,29.85,SSE,157,0.0,4.0,56,0.04,,,-99.99,WeatherLink 6.0.3,2013-05-30 09:50:00,
2013-05-30 04:55:00,63.7,47.7,29.85,SE,143,1.0,1.0,56,0.00,,,1.12,Wunderground v.1.15,2013-05-30 09:55:00,
2013-05-30 05:00:00,63.7,47.7,29.85,SE,142,0.0,0.0,56,0.00,,,1.12,Wunderground v.1.15,2013-05-30 10:00:00,
2013-05-30 05:05:00,63.7,47.7,29.85,SE,136,0.0,0.0,56,0.00,,,1.12,Wunderground v.1.15,2013-05-30 10:05:00,
2013-05-30 05:10:00,63.7,47.7,29.85,SE,137,0.0,0.0,56,0.00,,,1.12,Wunderground v.1.15,2013-05-30 10:10:00,
2013-05-30 05:15:00,63.7,47.7,29.85,SE,132,0.0,0.0,56,0.00,,,1.12,Wunderground v.1.15,2013-05-30 10:15:00,
2013-05-30 05:20:00,63.7,47.7,29.85,SE,132,0.0,2.0,56,0.00,,,1.12,Wunderground v.1.15,2013-05-30 10:20:00,
2013-05-30 05:25:00,63.7,47.7,29.84,SE,136,0.0,2.0,56,0.00,,,1.12,Wunderground v.1.15,2013-05-30 10:25:00,
2013-05-30 05:33:00,63.8,47.8,29.84,ESE,112,0.0,6.0,56,0.02,,,-99.99,WeatherLink 6.0.3,2013-05-30 10:33:00,
2013-05-30 05:35:00,63.8,47.3,29.85,SE,135,2.0,8.0,55,0.00,,,-99.99,WeatherLink 6.0.3,2013-05-30 10:35:00,
2013-05-30 05:40:00,63.8,47.3,29.85,SE,125,1.0,1.0,55,0.00,,,1.12,Wunderground v.1.15,2013-05-30 10:40:00,
2013-05-30 05:45:00,63.8,47.3,29.85,SE,127,0.0,3.0,55,0.00,,,1.12,Wunderground v.1.15,2013-05-30 10:45:00,
2013-05-30 05:50:00,63.8,47.3,29.85,SE,129,1.0,3.0,55,0.00,,,1.12,Wunderground v.1.15,2013-05-30 10:50:00,
2013-05-30 05:55:00,63.8,47.3,29.85,SE,142,2.0,3.0,55,0.00,,,1.12,Wunderground v.1.15,2013-05-30 10:55:00,
2013-05-30 06:00:00,63.8,47.3,29.85,SE,133,1.0,1.0,55,0.00,,,1.12,Wunderground v.1.15,2013-05-30 11:00:00,
2013-05-30 06:05:00,63.9,47.4,29.85,SE,136,1.0,1.0,55,0.00,,,1.12,Wunderground v.1.15,2013-05-30 11:05:00,
2013-05-30 06:10:00,63.9,47.4,29.84,SE,140,1.0,3.0,55,0.00,,,1.12,Wunderground v.1.15,2013-05-30 11:10:00,
2013-05-30 06:15:00,63.9,47.4,29.84,SSE,147,2.0,3.0,55,0.00,,,1.12,Wunderground v.1.15,2013-05-30 11:15:00,
2013-05-30 06:20:00,63.9,47.4,29.84,SE,130,3.0,3.0,55,0.00,,,1.12,Wunderground v.1.15,2013-05-30 11:20:00,
2013-05-30 06:25:00,64.0,47.5,29.84,SSE,158,3.0,3.0,55,0.00,,,1.12,Wunderground v.1.15,2013-05-30 11:25:00,
2013-05-30 06:30:00,64.1,47.6,29.84,SSE,153,3.0,3.0,55,0.00,,,1.12,Wunderground v.1.15,2013-05-30 11:30:00,
2013-05-30 06:35:00,64.2,47.7,29.83,SSE,166,3.0,3.0,55,0.00,,,1.12,Wunderground v.1.15,2013-05-30 11:35:00,
2013-05-30 06:40:00,64.4,47.9,29.83,South,180,4.0,4.0,55,0.00,,,1.12,Wunderground v.1.15,2013-05-30 11:40:00,
2013-05-30 06:48:00,64.4,47.9,29.83,SSE,157,4.0,9.0,55,0.00,,,-99.99,WeatherLink 6.0.3,2013-05-30 11:48:00,
2013-05-30 06:50:00,64.9,48.8,29.84,South,180,1.0,5.0,56,0.00,,,-99.99,WeatherLink 6.0.3,2013-05-30 11:50:00,
2013-05-30 06:55:00,65.1,49.0,29.84,SSE,165,1.0,3.0,56,0.00,,,1.12,Wunderground v.1.15,2013-05-30 11:55:00,
2013-05-30 07:00:00,65.3,49.7,29.84,South,169,2.0,2.0,57,0.00,,,1.12,Wunderground v.1.15,2013-05-30 12:00:00,
2013-05-30 07:05:00,65.5,49.9,29.84,South,173,4.0,4.0,57,0.00,,,1.12,Wunderground v.1.15,2013-05-30 12:05:00,
2013-05-30 07:10:00,65.9,50.2,29.84,South,175,5.0,5.0,57,0.00,,,1.12,Wunderground v.1.15,2013-05-30 12:10:00,
2013-05-30 07:15:00,66.2,50.5,29.84,South,177,5.0,5.0,57,0.00,,,1.12,Wunderground v.1.15,2013-05-30 12:15:00,
2013-05-30 07:20:00,66.5,51.3,29.84,South,180,5.0,8.0,58,0.00,,,-99.99,WeatherLink 6.0.3,2013-05-30 12:20:00,
2013-05-30 07:25:00,66.5,51.3,29.83,SSE,168,5.0,5.0,58,0.00,,,1.12,Wunderground v.1.15,2013-05-30 12:25:00,
2013-05-30 07:30:00,66.7,51.5,29.83,South,174,5.0,7.0,58,0.00,,,1.12,Wunderground v.1.15,2013-05-30 12:30:00,
2013-05-30 07:35:00,67.0,51.3,29.84,South,175,5.0,7.0,57,0.00,,,1.12,Wunderground v.1.15,2013-05-30 12:35:00,
2013-05-30 07:45:00,68.1,52.8,29.83,South,175,5.0,5.0,58,0.00,,,1.12,Wunderground v.1.15,2013-05-30 12:45:00,
2013-05-30 07:50:00,68.1,53.2,29.83,South,174,6.0,7.0,59,0.00,,,1.12,Wunderground v.1.15,2013-05-30 12:50:00,
2013-05-30 07:55:00,68.3,52.9,29.84,South,178,6.0,8.0,58,0.00,,,1.12,Wunderground v.1.15,2013-05-30 12:55:00,
2013-05-30 08:00:00,69.0,53.6,29.83,South,178,6.0,6.0,58,0.00,,,1.12,Wunderground v.1.15,2013-05-30 13:00:00,
2013-05-30 08:05:00,69.3,53.9,29.83,SSE,165,7.0,11.0,58,0.00,,,1.12,Wunderground v.1.15,2013-05-30 13:05:00,
2013-05-30 08:10:00,69.6,54.2,29.83,South,173,7.0,7.0,58,0.00,,,1.12,Wunderground v.1.15,2013-05-30 13:10:00,
2013-05-30 08:18:00,69.7,54.3,29.83,South,180,6.0,11.0,58,0.00,,,-99.99,WeatherLink 6.0.3,2013-05-30 13:18:00,
2013-05-30 08:20:00,70.3,55.3,29.83,South,180,7.0,12.0,59,0.00,,,-99.99,WeatherLink 6.0.3,2013-05-30 13:20:00,
2013-05-30 08:25:00,70.7,55.7,29.83,SSE,168,6.0,11.0,59,0.00,,,1.12,Wunderground v.1.15,2013-05-30 13:25:00,
2013-05-30 08:33:00,70.7,55.7,29.83,South,180,6.0,11.0,59,0.00,,,-99.99,WeatherLink 6.0.3,2013-05-30 13:33:00,
2013-05-30 08:35:00,71.5,56.9,29.82,South,180,7.0,12.0,60,0.00,,,-99.99,WeatherLink 6.0.3,2013-05-30 13:35:00,
2013-05-30 08:40:00,71.8,57.6,29.82,SSE,167,8.0,8.0,61,0.00,,,1.12,Wunderground v.1.15,2013-05-30 13:40:00,
2013-05-30 08:45:00,72.2,58.5,29.83,South,182,9.0,10.0,62,0.00,,,1.12,Wunderground v.1.15,2013-05-30 13:45:00,
2013-05-30 08:50:00,72.6,58.8,29.82,South,171,8.0,8.0,62,0.00,,,1.12,Wunderground v.1.15,2013-05-30 13:50:00,
2013-05-30 08:55:00,73.0,59.2,29.83,South,173,6.0,8.0,62,0.00,,,1.12,Wunderground v.1.15,2013-05-30 13:55:00,
2013-05-30 09:00:00,72.7,59.4,29.83,South,187,5.0,6.0,63,0.00,,,1.12,Wunderground v.1.15,2013-05-30 14:00:00,
2013-05-30 09:05:00,72.6,59.3,29.83,SSW,193,7.0,7.0,63,0.00,,,1.12,Wunderground v.1.15,2013-05-30 14:05:00,
2013-05-30 09:10:00,72.8,59.5,29.82,SSE,163,8.0,8.0,63,0.00,,,1.12,Wunderground v.1.15,2013-05-30 14:10:00,
2013-05-30 09:15:00,72.8,59.5,29.82,South,191,8.0,9.0,63,0.00,,,1.12,Wunderground v.1.15,2013-05-30 14:15:00,
2013-05-30 09:20:00,73.0,59.2,29.83,South,175,8.0,8.0,62,0.00,,,1.12,Wunderground v.1.15,2013-05-30 14:20:00,
2013-05-30 09:25:00,73.7,60.3,29.82,South,171,9.0,9.0,63,0.00,,,1.12,Wunderground v.1.15,2013-05-30 14:25:00,
2013-05-30 09:30:00,74.0,60.6,29.82,South,178,9.0,9.0,63,0.00,,,1.12,Wunderground v.1.15,2013-05-30 14:30:00,
2013-05-30 09:35:00,74.2,61.2,29.82,South,180,9.0,16.0,64,0.00,,,-99.99,WeatherLink 6.0.3,2013-05-30 14:35:00,
2013-05-30 09:40:00,74.3,61.3,29.82,SSW,204,8.0,8.0,64,0.00,,,1.12,Wunderground v.1.15,2013-05-30 14:40:00,
2013-05-30 09:45:00,74.6,61.6,29.82,South,184,9.0,10.0,64,0.00,,,1.12,Wunderground v.1.15,2013-05-30 14:45:00,
2013-05-30 09:50:00,74.9,62.3,29.82,SSW,196,11.0,13.0,65,0.00,,,1.12,Wunderground v.1.15,2013-05-30 14:50:00,
2013-05-30 09:55:00,75.2,63.1,29.82,South,182,12.0,13.0,66,0.00,,,1.12,Wunderground v.1.15,2013-05-30 14:55:00,
2013-05-30 10:00:00,75.7,63.5,29.82,SSW,195,11.0,11.0,66,0.00,,,1.12,Wunderground v.1.15,2013-05-30 15:00:00,
2013-05-30 10:05:00,75.6,63.9,29.82,South,174,10.0,17.0,67,0.00,,,1.12,Wunderground v.1.15,2013-05-30 15:05:00,
2013-05-30 10:10:00,75.9,64.2,29.82,South,190,11.0,18.0,67,0.00,,,1.12,Wunderground v.1.15,2013-05-30 15:10:00,
2013-05-30 10:18:00,75.9,64.2,29.82,South,180,12.0,20.0,67,0.00,,,-99.99,WeatherLink 6.0.3,2013-05-30 15:18:00,
2013-05-30 10:20:00,75.1,62.5,29.84,SSW,202,9.0,16.0,65,0.00,,,-99.99,WeatherLink 6.0.3,2013-05-30 15:20:00,
2013-05-30 10:25:00,74.9,62.8,29.84,SSW,195,10.0,11.0,66,0.00,,,1.12,Wunderground v.1.15,2013-05-30 15:25:00,
2013-05-30 10:33:00,74.9,62.8,29.84,SSW,202,11.0,17.0,66,0.00,,,-99.99,WeatherLink 6.0.3,2013-05-30 15:33:00,
2013-05-30 10:35:00,74.9,63.2,29.83,SSW,202,10.0,19.0,67,0.00,,,-99.99,WeatherLink 6.0.3,2013-05-30 15:35:00,
2013-05-30 10:40:00,74.6,62.5,29.83,SSW,192,10.0,11.0,66,0.00,,,1.12,Wunderground v.1.15,2013-05-30 15:40:00,
2013-05-30 10:45:00,74.2,62.1,29.83,South,182,10.0,11.0,66,0.00,,,1.13,Wunderground v.1.15,2013-05-30 15:45:00,
2013-05-30 10:50:00,73.2,59.8,29.83,SSW,195,10.0,10.0,63,0.18,,,1.14,Wunderground v.1.15,2013-05-30 15:50:00,
2013-05-30 10:55:00,73.6,61.1,29.85,South,184,11.0,20.0,65,0.08,,,1.14,Wunderground v.1.15,2013-05-30 15:55:00,
2013-05-30 11:03:00,73.6,61.1,29.85,South,180,13.0,20.0,65,0.02,,,-99.99,WeatherLink 6.0.3,2013-05-30 16:03:00,
2013-05-30 11:05:00,73.7,60.8,29.85,SSW,202,10.0,15.0,64,0.02,,,-99.99,WeatherLink 6.0.3,2013-05-30 16:05:00,
2013-05-30 11:10:00,73.9,61.0,29.85,SSW,202,10.0,10.0,64,0.00,,,1.14,Wunderground v.1.15,2013-05-30 16:10:00,
2013-05-30 11:15:00,74.1,61.1,29.85,SSW,196,10.0,10.0,64,0.00,,,1.14,Wunderground v.1.15,2013-05-30 16:15:00,
2013-05-30 11:20:00,74.3,61.3,29.86,SSW,192,9.0,9.0,64,0.00,,,1.14,Wunderground v.1.15,2013-05-30 16:20:00,
2013-05-30 11:25:00,74.4,61.4,29.86,SSW,192,7.0,9.0,64,0.00,,,1.14,Wunderground v.1.15,2013-05-30 16:25:00,
2013-05-30 11:30:00,74.5,61.5,29.86,SSW,192,8.0,9.0,64,0.00,,,1.14,Wunderground v.1.15,2013-05-30 16:30:00,
2013-05-30 11:35:00,74.6,61.6,29.85,South,180,9.0,15.0,64,0.02,,,-99.99,WeatherLink 6.0.3,2013-05-30 16:35:00,
2013-05-30 11:39:00,74.6,62.1,29.85,South,186,9.0,9.0,65,0.00,,,1.14,Wunderground v.1.15,2013-05-30 16:39:00,
2013-05-30 11:45:00,74.4,61.4,29.84,South,182,8.0,9.0,64,0.00,,,1.14,Wunderground v.1.15,2013-05-30 16:45:00,
2013-05-30 11:50:00,74.9,62.3,29.83,South,180,8.0,12.0,65,0.00,,,-99.99,WeatherLink 6.0.3,2013-05-30 16:50:00,
2013-05-30 11:55:00,75.6,62.6,29.83,South,185,8.0,9.0,64,0.00,,,1.14,Wunderground v.1.15,2013-05-30 16:55:00,
2013-05-30 12:00:00,76.5,64.3,29.82,SSW,192,8.0,8.0,66,0.00,,,1.14,Wunderground v.1.15,2013-05-30 17:00:00,
2013-05-30 12:05:00,77.4,65.1,29.83,South,191,8.0,8.0,66,0.00,,,1.14,Wunderground v.1.15,2013-05-30 17:05:00,
2013-05-30 12:10:00,77.6,65.8,29.83,South,180,7.0,9.0,67,0.00,,,1.14,Wunderground v.1.15,2013-05-30 17:10:00,
2013-05-30 12:15:00,77.3,65.5,29.83,South,182,9.0,9.0,67,0.00,,,1.14,Wunderground v.1.15,2013-05-30 17:15:00,
2013-05-30 12:20:00,77.2,65.4,29.83,SSW,192,10.0,12.0,67,0.00,,,1.14,Wunderground v.1.15,2013-05-30 17:20:00,
2013-05-30 12:25:00,77.8,65.5,29.84,SSW,194,10.0,12.0,66,0.00,,,1.14,Wunderground v.1.15,2013-05-30 17:25:00,
2013-05-30 12:30:00,77.3,65.5,29.83,South,180,9.0,9.0,67,0.00,,,1.14,Wunderground v.1.15,2013-05-30 17:30:00,
2013-05-30 12:35:00,76.5,64.7,29.83,SSW,195,9.0,9.0,67,0.00,,,1.14,Wunderground v.1.15,2013-05-30 17:35:00,
2013-05-30 12:40:00,75.7,63.5,29.83,SSW,195,8.0,8.0,66,0.00,,,1.14,Wunderground v.1.15,2013-05-30 17:40:00,
2013-05-30 12:48:00,75.6,63.4,29.83,South,180,8.0,14.0,66,0.00,,,-99.99,WeatherLink 6.0.3,2013-05-30 17:48:00,
2013-05-30 12:50:00,75.1,63.0,29.83,South,180,7.0,12.0,66,0.00,,,-99.99,WeatherLink 6.0.3,2013-05-30 17:50:00,
2013-05-30 12:55:00,75.0,62.9,29.83,South,187,7.0,10.0,66,0.00,,,1.14,Wunderground v.1.15,2013-05-30 17:55:00,
2013-05-30 13:00:00,75.1,63.0,29.83,SSW,193,8.0,9.0,66,0.00,,,1.14,Wunderground v.1.15,2013-05-30 18:00:00,
2013-05-30 13:05:00,75.2,62.6,29.83,South,180,6.0,13.0,65,0.00,,,-99.99,WeatherLink 6.0.3,2013-05-30 18:05:00,
2013-05-30 13:10:00,75.0,62.4,29.83,SSW,195,5.0,7.0,65,0.00,,,1.14,Wunderground v.1.15,2013-05-30 18:10:00,
2013-05-30 13:15:00,75.0,62.4,29.83,South,190,6.0,8.0,65,0.00,,,1.14,Wunderground v.1.15,2013-05-30 18:15:00,
2013-05-30 13:20:00,75.3,63.2,29.83,SSE,157,7.0,8.0,66,0.00,,,1.14,Wunderground v.1.15,2013-05-30 18:20:00,
2013-05-30 13:25:00,75.3,62.7,29.82,South,186,7.0,8.0,65,0.00,,,1.14,Wunderground v.1.15,2013-05-30 18:25:00,
2013-05-30 13:30:00,75.0,62.4,29.82,South,186,6.0,9.0,65,0.00,,,1.14,Wunderground v.1.15,2013-05-30 18:30:00,
2013-05-30 13:35:00,74.6,62.5,29.81,South,175,7.0,9.0,66,0.00,,,1.14,Wunderground v.1.15,2013-05-30 18:35:00,
2013-05-30 13:40:00,74.1,61.6,29.81,SSE,168,8.0,13.0,65,0.00,,,1.14,Wunderground v.1.15,2013-05-30 18:40:00,
2013-05-30 13:45:00,73.8,60.9,29.81,South,186,7.0,13.0,64,0.00,,,1.14,Wunderground v.1.15,2013-05-30 18:45:00,
2013-05-30 13:50:00,73.2,60.3,29.82,South,180,7.0,13.0,64,0.00,,,-99.99,WeatherLink 6.0.3,2013-05-30 18:50:00,
2013-05-30 13:55:00,73.1,60.6,29.83,SSW,192,8.0,9.0,65,0.00,,,1.14,Wunderground v.1.15,2013-05-30 18:55:00,
2013-05-30 14:00:00,73.2,60.7,29.83,SSW,192,10.0,10.0,65,0.00,,,1.14,Wunderground v.1.15,2013-05-30 19:00:00,
2013-05-30 14:05:00,72.5,59.6,29.82,South,191,8.0,10.0,64,0.00,,,1.15,Wunderground v.1.15,2013-05-30 19:05:00,
2013-05-30 14:10:00,72.5,60.5,29.82,South,187,6.0,6.0,66,0.00,,,1.15,Wunderground v.1.15,2013-05-30 19:10:00,
2013-05-30 14:15:00,72.4,61.2,29.82,South,186,8.0,8.0,68,0.05,,,1.16,Wunderground v.1.15,2013-05-30 19:15:00,
2013-05-30 14:20:00,72.1,60.5,29.82,South,180,6.0,13.0,67,0.02,,,-99.99,WeatherLink 6.0.3,2013-05-30 19:20:00,
2013-05-30 14:25:00,72.1,60.5,29.82,South,173,5.0,8.0,67,0.05,,,1.16,Wunderground v.1.15,2013-05-30 19:25:00,
2013-05-30 14:30:00,72.7,60.7,29.81,SSW,201,4.0,6.0,66,0.00,,,1.16,Wunderground v.1.15,2013-05-30 19:30:00,
2013-05-30 14:35:00,72.8,61.6,29.81,South,180,6.0,10.0,68,0.02,,,-99.99,WeatherLink 6.0.3,2013-05-30 19:35:00,
2013-05-30 14:40:00,72.9,61.7,29.81,SSW,192,5.0,8.0,68,0.00,,,1.16,Wunderground v.1.15,2013-05-30 19:40:00,
2013-05-30 14:45:00,73.0,61.8,29.81,South,187,5.0,8.0,68,0.00,,,1.16,Wunderground v.1.15,2013-05-30 19:45:00,
2013-05-30 14:50:00,73.5,61.9,29.81,South,186,6.0,6.0,67,0.00,,,1.16,Wunderground v.1.15,2013-05-30 19:50:00,
2013-05-30 14:55:00,74.0,62.8,29.82,South,175,6.0,6.0,68,0.00,,,1.16,Wunderground v.1.15,2013-05-30 19:55:00,
2013-05-30 15:00:00,74.0,63.2,29.82,South,173,7.0,7.0,69,0.00,,,1.16,Wunderground v.1.15,2013-05-30 20:00:00,
2013-05-30 15:05:00,73.6,62.8,29.82,SSW,198,6.0,9.0,69,0.00,,,1.16,Wunderground v.1.15,2013-05-30 20:05:00,
2013-05-30 15:10:00,73.3,62.5,29.82,South,173,7.0,7.0,69,0.00,,,1.16,Wunderground v.1.15,2013-05-30 20:10:00,
2013-05-30 15:15:00,73.7,62.5,29.82,SSW,194,6.0,7.0,68,0.00,,,1.16,Wunderground v.1.15,2013-05-30 20:15:00,
2013-05-30 15:20:00,73.6,62.4,29.82,South,172,6.0,6.0,68,0.00,,,1.16,Wunderground v.1.15,2013-05-30 20:20:00,
2013-05-30 15:25:00,73.6,62.4,29.82,South,183,5.0,6.0,68,0.00,,,1.16,Wunderground v.1.15,2013-05-30 20:25:00,
2013-05-30 15:33:00,73.5,62.3,29.82,South,180,6.0,11.0,68,0.00,,,-99.99,WeatherLink 6.0.3,2013-05-30 20:33:00,
2013-05-30 15:35:00,72.2,60.6,29.82,South,180,3.0,8.0,67,0.00,,,-99.99,WeatherLink 6.0.3,2013-05-30 20:35:00,
2013-05-30 15:40:00,71.9,60.8,29.82,South,178,3.0,5.0,68,0.00,,,1.16,Wunderground v.1.15,2013-05-30 20:40:00,
2013-05-30 15:45:00,71.5,60.0,29.82,South,178,5.0,7.0,67,0.00,,,1.16,Wunderground v.1.15,2013-05-30 20:45:00,
2013-05-30 15:50:00,70.8,58.9,29.82,South,180,2.0,7.0,66,0.00,,,-99.99,WeatherLink 6.0.3,2013-05-30 20:50:00,
2013-05-30 15:55:00,70.6,58.7,29.81,South,174,2.0,4.0,66,0.00,,,1.16,Wunderground v.1.15,2013-05-30 20:55:00,
2013-05-30 16:00:00,70.7,58.4,29.80,South,175,1.0,5.0,65,0.00,,,1.16,Wunderground v.1.15,2013-05-30 21:00:00,
2013-05-30 16:05:00,70.9,58.5,29.79,South,180,3.0,8.0,65,0.00,,,1.16,Wunderground v.1.15,2013-05-30 21:05:00,
2013-05-30 16:10:00,71.2,58.8,29.79,South,172,6.0,6.0,65,0.00,,,1.16,Wunderground v.1.15,2013-05-30 21:10:00,
2013-05-30 16:15:00,71.3,58.9,29.79,South,176,6.0,6.0,65,0.00,,,1.16,Wunderground v.1.15,2013-05-30 21:15:00,
2013-05-30 16:20:00,71.2,58.8,29.80,South,177,5.0,5.0,65,0.00,,,1.16,Wunderground v.1.15,2013-05-30 21:20:00,
2013-05-30 16:25:00,71.3,58.5,29.81,South,169,4.0,5.0,64,0.00,,,1.16,Wunderground v.1.15,2013-05-30 21:25:00,
2013-05-30 16:30:00,71.2,58.4,29.81,South,180,4.0,4.0,64,0.00,,,1.16,Wunderground v.1.15,2013-05-30 21:30:00,
2013-05-30 16:35:00,71.2,58.4,29.80,South,179,5.0,5.0,64,0.00,,,1.16,Wunderground v.1.15,2013-05-30 21:35:00,
2013-05-30 16:40:00,71.1,57.9,29.80,South,170,4.0,4.0,63,0.00,,,1.17,Wunderground v.1.15,2013-05-30 21:40:00,
2013-05-30 16:45:00,71.0,57.3,29.80,South,176,3.0,5.0,62,0.00,,,1.17,Wunderground v.1.15,2013-05-30 21:45:00,
2013-05-30 16:50:00,70.9,56.8,29.79,South,173,2.0,2.0,61,0.00,,,1.17,Wunderground v.1.15,2013-05-30 21:50:00,
2013-05-30 16:55:00,70.9,56.3,29.79,SSE,165,0.0,2.0,60,0.00,,,1.17,Wunderground v.1.15,2013-05-30 21:55:00,
2013-05-30 17:03:00,70.9,56.3,29.79,North,-999,0.0,0.0,60,0.01,,,-99.99,WeatherLink 6.0.3,2013-05-30 22:03:00,
2013-05-30 17:05:00,71.3,56.7,29.79,South,180,2.0,6.0,60,0.01,,,-99.99,WeatherLink 6.0.3,2013-05-30 22:05:00,
2013-05-30 17:10:00,71.4,56.3,29.79,South,172,2.0,4.0,59,0.00,,,1.17,Wunderground v.1.15,2013-05-30 22:10:00,
2013-05-30 17:15:00,71.4,56.3,29.78,South,171,2.0,4.0,59,0.00,,,1.18,Wunderground v.1.15,2013-05-30 22:15:00,
2013-05-30 17:20:00,71.3,55.8,29.79,South,171,0.0,0.0,58,0.33,,,1.22,Wunderground v.1.15,2013-05-30 22:20:00,
2013-05-30 17:25:00,71.2,54.7,29.80,South,172,0.0,0.0,56,0.40,,,1.29,Wunderground v.1.15,2013-05-30 22:25:00,
2013-05-30 17:30:00,71.1,53.6,29.80,South,172,0.0,3.0,54,0.09,,,1.29,Wunderground v.1.15,2013-05-30 22:30:00,
2013-05-30 17:35:00,71.3,53.3,29.80,South,186,2.0,5.0,53,0.05,,,1.29,Wunderground v.1.15,2013-05-30 22:35:00,
2013-05-30 17:40:00,71.4,53.4,29.80,SSW,202,4.0,4.0,53,0.05,,,1.30,Wunderground v.1.15,2013-05-30 22:40:00,
2013-05-30 17:45:00,71.5,53.5,29.81,SSW,192,3.0,4.0,53,0.05,,,1.30,Wunderground v.1.15,2013-05-30 22:45:00,
2013-05-30 17:50:00,71.5,53.5,29.80,South,180,4.0,7.0,53,0.13,,,-99.99,WeatherLink 6.0.3,2013-05-30 22:50:00,
2013-05-30 17:55:00,71.6,53.6,29.81,South,182,4.0,5.0,53,0.00,,,1.30,Wunderground v.1.15,2013-05-30 22:55:00,
2013-05-30 18:00:00,71.4,53.9,29.79,South,188,5.0,5.0,54,0.00,,,1.30,Wunderground v.1.15,2013-05-30 23:00:00,
2013-05-30 18:05:00,71.3,53.8,29.80,South,180,4.0,9.0,54,0.13,,,-99.99,WeatherLink 6.0.3,2013-05-30 23:05:00,
2013-05-30 18:10:00,71.3,53.8,29.79,South,182,4.0,4.0,54,0.00,,,1.30,Wunderground v.1.15,2013-05-30 23:10:00,
2013-05-30 18:15:00,71.3,53.3,29.79,South,175,4.0,4.0,53,0.00,,,1.30,Wunderground v.1.15,2013-05-30 23:15:00,
2013-05-30 18:20:00,71.3,53.3,29.81,South,180,5.0,10.0,53,0.06,,,-99.99,WeatherLink 6.0.3,2013-05-30 23:20:00,
2013-05-30 18:25:00,71.3,53.3,29.82,South,180,4.0,7.0,53,0.02,,,-99.99,WeatherLink 6.0.3,2013-05-30 23:25:00,
2013-05-30 18:30:00,70.5,55.0,29.84,WNW,292,6.0,16.0,58,0.03,,,-99.99,WeatherLink 6.0.3,2013-05-30 23:30:00,
2013-05-30 18:35:00,68.0,53.1,29.84,North,0,2.0,10.0,59,0.06,,,-99.99,WeatherLink 6.0.3,2013-05-30 23:35:00,
2013-05-30 18:40:00,67.1,51.4,29.84,North,0,1.0,5.0,57,0.14,,,-99.99,WeatherLink 6.0.3,2013-05-30 23:40:00,
2013-05-30 18:45:00,66.9,50.7,29.83,NNW,337,2.0,7.0,56,0.20,,,-99.99,WeatherLink 6.0.3,2013-05-30 23:45:00,
2013-05-30 18:50:00,66.8,50.1,29.83,North,-999,0.0,0.0,55,0.24,,,-99.99,WeatherLink 6.0.3,2013-05-30 23:50:00,
2013-05-30 18:55:00,66.7,49.5,29.83,North,-999,0.0,0.0,54,0.25,,,-99.99,WeatherLink 6.0.3,2013-05-30 23:55:00,
2013-05-30 19:00:00,66.7,49.5,29.83,North,-999,0.0,0.0,54,0.26,,,-99.99,WeatherLink 6.0.3,2013-05-31 00:00:00,
2013-05-30 19:05:00,66.8,49.1,29.82,North,-999,0.0,0.0,53,0.27,,,-99.99,WeatherLink 6.0.3,2013-05-31 00:05:00,
2013-05-30 19:10:00,66.7,49.0,29.82,North,-999,0.0,0.0,53,0.27,,,-99.99,WeatherLink 6.0.3,2013-05-31 00:10:00,
2013-05-30 19:15:00,66.8,49.1,29.82,North,-999,0.0,0.0,53,0.28,,,-99.99,WeatherLink 6.0.3,2013-05-31 00:15:00,
2013-05-30 19:20:00,66.8,49.1,29.83,North,-999,0.0,0.0,53,0.28,,,-99.99,WeatherLink 6.0.3,2013-05-31 00:20:00,
2013-05-30 19:25:00,66.8,49.1,29.83,East,90,0.0,0.0,53,0.04,,,1.58,Wunderground v.1.15,2013-05-31 00:25:00,
2013-05-30 19:30:00,66.8,48.6,29.83,East,90,0.0,0.0,52,0.00,,,1.58,Wunderground v.1.15,2013-05-31 00:30:00,
2013-05-30 19:35:00,66.9,48.7,29.83,East,90,0.0,1.0,52,0.23,,,-99.99,WeatherLink 6.0.3,2013-05-31 00:35:00,
2013-05-30 19:39:00,66.9,48.7,29.83,East,88,0.0,0.0,52,0.00,,,1.58,Wunderground v.1.15,2013-05-31 00:39:00,
2013-05-30 19:45:00,66.9,48.7,29.83,East,88,0.0,0.0,52,0.00,,,1.58,Wunderground v.1.15,2013-05-31 00:45:00,
2013-05-30 19:50:00,66.9,48.7,29.83,North,-999,0.0,0.0,52,0.04,,,-99.99,WeatherLink 6.0.3,2013-05-31 00:50:00,
2013-05-30 19:54:00,66.8,48.6,29.83,East,86,0.0,0.0,52,0.00,,,1.58,Wunderground v.1.15,2013-05-31 00:54:00,
2013-05-30 19:59:00,66.8,48.6,29.82,East,86,0.0,0.0,52,0.00,,,1.58,Wunderground v.1.15,2013-05-31 00:59:00,
2013-05-30 20:04:00,66.9,48.7,29.81,East,86,0.0,0.0,52,0.00,,,1.58,Wunderground v.1.15,2013-05-31 01:04:00,
2013-05-30 20:05:00,66.9,48.7,29.81,North,-999,0.0,0.0,52,0.01,,,-99.99,WeatherLink 6.0.3,2013-05-31 01:05:00,
2013-05-30 20:10:00,67.1,48.4,29.81,East,86,0.0,0.0,51,0.00,,,1.58,Wunderground v.1.15,2013-05-31 01:10:00,
2013-05-30 20:15:00,67.5,48.7,29.82,East,86,0.0,0.0,51,0.00,,,1.58,Wunderground v.1.15,2013-05-31 01:15:00,
2013-05-30 20:20:00,67.9,49.1,29.81,East,92,0.0,0.0,51,0.00,,,1.58,Wunderground v.1.15,2013-05-31 01:20:00,
2013-05-30 20:25:00,68.3,48.9,29.82,East,92,0.0,0.0,50,0.00,,,1.58,Wunderground v.1.15,2013-05-31 01:25:00,
2013-05-30 20:30:00,68.8,49.4,29.83,East,91,0.0,0.0,50,0.00,,,1.58,Wunderground v.1.15,2013-05-31 01:30:00,
2013-05-30 20:35:00,69.1,49.7,29.83,East,91,0.0,0.0,50,0.00,,,1.58,Wunderground v.1.15,2013-05-31 01:35:00,
2013-05-30 20:40:00,69.2,49.8,29.83,East,92,0.0,0.0,50,0.00,,,1.59,Wunderground v.1.15,2013-05-31 01:40:00,
2013-05-30 20:45:00,69.3,49.9,29.84,East,91,0.0,0.0,50,0.27,,,1.61,Wunderground v.1.15,2013-05-31 01:45:00,
2013-05-30 20:50:00,69.4,49.4,29.84,East,92,0.0,0.0,49,0.10,,,1.61,Wunderground v.1.15,2013-05-31 01:50:00,
2013-05-30 20:55:00,69.6,49.6,29.85,East,91,0.0,0.0,49,0.05,,,1.61,Wunderground v.1.15,2013-05-31 01:55:00,
2013-05-30 21:00:00,69.9,49.9,29.84,ESE,112,0.0,0.0,49,0.04,,,1.62,Wunderground v.1.15,2013-05-31 02:00:00,
2013-05-30 21:05:00,70.1,50.0,29.85,South,180,1.0,4.0,49,0.04,,,-99.99,WeatherLink 6.0.3,2013-05-31 02:05:00,
2013-05-30 21:10:00,70.3,50.2,29.85,South,171,2.0,3.0,49,0.04,,,1.62,Wunderground v.1.15,2013-05-31 02:10:00,
2013-05-30 21:18:00,70.3,50.2,29.85,South,180,3.0,5.0,49,0.04,,,-99.99,WeatherLink 6.0.3,2013-05-31 02:18:00,
2013-05-30 21:20:00,70.6,50.0,29.87,South,180,3.0,6.0,48,0.06,,,-99.99,WeatherLink 6.0.3,2013-05-31 02:20:00,
2013-05-30 21:24:00,70.6,50.0,29.87,SW,234,2.0,3.0,48,0.11,,,1.65,Wunderground v.1.15,2013-05-31 02:24:00,
2013-05-30 21:25:00,70.6,50.0,29.87,South,180,1.0,9.0,48,0.07,,,-99.99,WeatherLink 6.0.3,2013-05-31 02:25:00,
2013-05-30 21:30:00,70.7,50.0,29.89,SW,233,2.0,7.0,48,0.39,,,1.68,Wunderground v.1.15,2013-05-31 02:30:00,
2013-05-30 21:35:00,69.3,49.3,29.92,SSW,202,5.0,13.0,49,0.12,,,-99.99,WeatherLink 6.0.3,2013-05-31 02:35:00,
2013-05-30 21:40:00,66.8,48.1,29.91,SW,225,5.0,11.0,51,0.24,,,-99.99,WeatherLink 6.0.3,2013-05-31 02:40:00,
2013-05-30 21:45:00,65.6,47.0,29.87,SSW,202,1.0,4.0,51,0.28,,,-99.99,WeatherLink 6.0.3,2013-05-31 02:45:00,
2013-05-30 21:50:00,65.2,46.6,29.86,North,-999,0.0,0.0,51,0.29,,,-99.99,WeatherLink 6.0.3,2013-05-31 02:50:00,
2013-05-30 21:55:00,65.1,46.5,29.83,SE,135,4.0,12.0,51,0.30,,,-99.99,WeatherLink 6.0.3,2013-05-31 02:55:00,
2013-05-30 22:00:00,65.1,46.5,29.85,ESE,112,2.0,9.0,51,0.29,,,-99.99,WeatherLink 6.0.3,2013-05-31 03:00:00,
2013-05-30 22:05:00,65.0,46.4,29.84,ESE,112,3.0,8.0,51,0.29,,,-99.99,WeatherLink 6.0.3,2013-05-31 03:05:00,
2013-05-30 22:10:00,64.9,46.8,29.83,SE,135,0.0,1.0,52,0.29,,,-99.99,WeatherLink 6.0.3,2013-05-31 03:10:00,
2013-05-30 22:15:00,64.8,46.8,29.85,North,-999,0.0,0.0,52,0.28,,,-99.99,WeatherLink 6.0.3,2013-05-31 03:15:00,
2013-05-30 22:20:00,64.5,46.5,29.85,North,-999,0.0,0.0,52,0.27,,,-99.99,WeatherLink 6.0.3,2013-05-31 03:20:00,
2013-05-30 22:30:00,64.2,46.7,29.84,SE,140,0.0,0.0,53,0.00,,,1.91,Wunderground v.1.15,2013-05-31 03:30:00,
2013-05-30 22:35:00,64.1,46.6,29.86,SE,140,0.0,0.0,53,0.00,,,1.91,Wunderground v.1.15,2013-05-31 03:35:00,
2013-05-30 22:40:00,64.0,46.5,29.87,SE,140,0.0,0.0,53,0.00,,,1.91,Wunderground v.1.15,2013-05-31 03:40:00,
2013-05-30 22:45:00,63.8,45.8,29.88,SE,140,0.0,0.0,52,0.00,,,1.91,Wunderground v.1.15,2013-05-31 03:45:00,
2013-05-30 22:50:00,63.5,45.6,29.87,SE,141,0.0,0.0,52,0.00,,,1.91,Wunderground v.1.15,2013-05-31 03:50:00,
2013-05-30 22:55:00,63.6,45.6,29.86,SSE,160,0.0,0.0,52,0.00,,,1.91,Wunderground v.1.15,2013-05-31 03:55:00,
2013-05-30 23:00:00,63.9,45.9,29.86,SE,136,0.0,0.0,52,0.00,,,1.91,Wunderground v.1.15,2013-05-31 04:00:00,
2013-05-30 23:03:00,63.7,45.7,29.86,North,-999,0.0,0.0,52,0.00,,,-99.99,WeatherLink 6.0.3,2013-05-31 04:03:00,
2013-05-30 23:04:00,64.0,46.0,29.86,SSE,155,0.0,0.0,52,0.00,,,1.91,Wunderground v.1.15,2013-05-31 04:04:00,
2013-05-30 23:05:00,64.0,46.0,29.85,North,-999,0.0,0.0,52,0.00,,,-99.99,WeatherLink 6.0.3,2013-05-31 04:05:00,
2013-05-30 23:09:00,64.1,46.1,29.85,SSE,150,0.0,0.0,52,0.00,,,1.91,Wunderground v.1.15,2013-05-31 04:09:00,
2013-05-30 23:15:00,64.2,46.2,29.86,SE,144,0.0,0.0,52,0.00,,,1.91,Wunderground v.1.15,2013-05-31 04:15:00,
2013-05-30 23:20:00,64.1,46.1,29.86,SE,144,0.0,0.0,52,0.00,,,1.91,Wunderground v.1.15,2013-05-31 04:20:00,
2013-05-30 23:25:00,64.1,46.1,29.86,SE,144,0.0,0.0,52,0.00,,,1.91,Wunderground v.1.15,2013-05-31 04:25:00,
2013-05-30 23:30:00,64.1,46.1,29.86,SE,141,0.0,0.0,52,0.00,,,1.91,Wunderground v.1.15,2013-05-31 04:30:00,
2013-05-30 23:35:00,64.4,45.9,29.86,North,-999,0.0,0.0,51,0.00,,,-99.99,WeatherLink 6.0.3,2013-05-31 04:35:00,
2013-05-30 23:40:00,64.5,46.5,29.85,SSE,152,0.0,0.0,52,0.00,,,1.91,Wunderground v.1.15,2013-05-31 04:40:00,
2013-05-30 23:45:00,64.6,46.6,29.85,SSE,153,0.0,0.0,52,0.00,,,1.91,Wunderground v.1.15,2013-05-31 04:45:00,
2013-05-30 23:50:00,64.7,46.7,29.85,SSE,152,0.0,0.0,52,0.00,,,1.91,Wunderground v.1.15,2013-05-31 04:50:00,
2013-05-30 23:55:00,64.9,46.8,29.85,SSE,153,0.0,0.0,52,0.00,,,1.91,Wunderground v.1.15,2013-05-31 04:55:00,